createdAt,value
2022-10-26T00:02:26.612Z,1.77
2022-10-26T00:04:53.847Z,1.67
2022-10-26T00:07:21.098Z,1.90
2022-10-26T00:09:48.832Z,1.60
2022-10-26T00:12:16.221Z,1.70
2022-10-26T00:14:44.632Z,1.70
2022-10-26T00:17:11.863Z,1.60
2022-10-26T00:19:39.223Z,1.60
2022-10-26T00:22:06.498Z,1.63
2022-10-26T00:24:33.728Z,1.80
2022-10-26T00:27:01.140Z,2.07
2022-10-26T00:29:29.172Z,1.50
2022-10-26T00:31:56.350Z,1.63
2022-10-26T00:34:23.888Z,1.83
2022-10-26T00:36:51.230Z,1.80
2022-10-26T00:39:18.551Z,1.80
2022-10-26T00:41:45.800Z,1.90
2022-10-26T00:44:36.061Z,2.10
2022-10-26T00:47:05.330Z,1.50
2022-10-26T00:49:32.688Z,1.50
2022-10-26T00:52:00.294Z,1.90
2022-10-26T00:54:27.828Z,1.70
2022-10-26T00:56:56.561Z,1.80
2022-10-26T00:59:24.353Z,2.40
2022-10-26T01:01:51.955Z,1.90
2022-10-26T01:04:19.733Z,1.40
2022-10-26T01:06:48.075Z,1.70
2022-10-26T01:09:15.379Z,1.70
2022-10-26T01:11:42.676Z,1.97
2022-10-26T01:14:11.877Z,1.90
2022-10-26T01:19:47.884Z,1.70
2022-10-26T01:22:15.199Z,1.80
2022-10-26T01:24:48.803Z,1.90
2022-10-26T01:27:18.959Z,1.90
2022-10-26T01:30:00.517Z,1.77
2022-10-26T01:32:36.012Z,1.70
2022-10-26T01:35:06.598Z,1.67
2022-10-26T01:37:36.922Z,1.53
2022-10-26T01:40:08.644Z,1.70
2022-10-26T01:42:38.943Z,1.70
2022-10-26T01:45:08.376Z,2.10
2022-10-26T01:47:38.693Z,1.97
2022-10-26T01:50:06.997Z,1.70
2022-10-26T01:52:34.619Z,1.93
2022-10-26T01:55:24.928Z,1.90
2022-10-26T01:57:53.053Z,1.63
2022-10-26T02:00:21.012Z,1.80
2022-10-26T02:03:07.514Z,1.90
2022-10-26T02:05:41.205Z,1.60
2022-10-26T02:08:11.726Z,1.70
2022-10-26T02:10:42.096Z,1.73
2022-10-26T02:13:24.391Z,1.80
2022-10-26T02:16:01.787Z,1.80
2022-10-26T02:18:58.577Z,1.50
2022-10-26T02:21:29.324Z,1.70
2022-10-26T02:23:58.421Z,1.83
2022-10-26T02:26:28.917Z,1.73
2022-10-26T02:28:58.976Z,1.60
2022-10-26T02:31:26.871Z,2.17
2022-10-26T02:33:56.183Z,2.90
2022-10-26T02:36:26.544Z,2.20
2022-10-26T02:38:55.127Z,1.83
2022-10-26T02:41:24.036Z,2.10
2022-10-26T02:43:58.366Z,1.90
2022-10-26T02:46:27.067Z,1.90
2022-10-26T02:48:54.697Z,1.70
2022-10-26T02:51:35.945Z,1.83
2022-10-26T02:54:11.462Z,2.10
2022-10-26T02:56:48.269Z,1.90
2022-10-26T02:59:16.710Z,2.00
2022-10-26T03:01:45.278Z,1.80
2022-10-26T03:04:12.875Z,1.97
2022-10-26T03:06:40.290Z,1.77
2022-10-26T03:09:07.796Z,1.60
2022-10-26T03:11:36.167Z,1.87
2022-10-26T03:14:03.737Z,2.10
2022-10-26T03:16:31.543Z,1.90
2022-10-26T03:18:59.513Z,2.03
2022-10-26T03:21:27.366Z,2.10
2022-10-26T03:23:56.116Z,1.90
2022-10-26T03:26:24.074Z,4.50
2022-10-26T03:28:51.677Z,1.83
2022-10-26T03:31:20.081Z,1.90
2022-10-26T03:33:47.451Z,1.80
2022-10-26T03:36:14.664Z,2.00
2022-10-26T03:38:42.079Z,2.17
2022-10-26T03:41:09.390Z,2.00
2022-10-26T03:43:36.623Z,1.80
2022-10-26T03:46:03.886Z,1.97
2022-10-26T03:48:31.508Z,2.17
2022-10-26T03:50:59.512Z,1.80
2022-10-26T03:53:27.448Z,1.90
2022-10-26T03:55:54.883Z,2.03
2022-10-26T03:58:22.480Z,2.10
2022-10-26T04:00:49.863Z,1.80
2022-10-26T04:03:17.111Z,2.10
2022-10-26T04:05:44.358Z,1.80
2022-10-26T04:08:12.069Z,2.30
2022-10-26T04:10:39.468Z,2.08
2022-10-26T04:13:06.786Z,2.13
2022-10-26T04:15:34.656Z,2.30
2022-10-26T04:18:03.413Z,2.22
2022-10-26T04:20:32.232Z,2.60
2022-10-26T04:23:03.890Z,2.10
2022-10-26T04:25:33.177Z,2.20
2022-10-26T04:28:01.934Z,2.30
2022-10-26T04:30:32.064Z,2.30
2022-10-26T04:32:59.466Z,2.30
2022-10-26T04:35:27.424Z,2.30
2022-10-26T04:38:12.944Z,2.10
2022-10-26T04:40:40.890Z,2.20
2022-10-26T04:43:12.323Z,2.47
2022-10-26T04:45:39.749Z,2.20
2022-10-26T04:48:08.767Z,2.20
2022-10-26T04:50:36.251Z,2.65
2022-10-26T04:53:03.868Z,2.33
2022-10-26T04:55:31.281Z,2.10
2022-10-26T04:58:01.172Z,2.50
2022-10-26T05:00:30.461Z,2.33
2022-10-26T05:03:01.832Z,2.30
2022-10-26T05:05:31.741Z,2.50
2022-10-26T05:07:59.411Z,2.00
2022-10-26T05:10:27.667Z,2.00
2022-10-26T05:12:55.867Z,2.20
2022-10-26T05:15:23.817Z,1.90
2022-10-26T05:18:03.267Z,2.20
2022-10-26T05:20:32.016Z,2.33
2022-10-26T05:23:01.412Z,2.13
2022-10-26T05:25:30.709Z,2.20
2022-10-26T05:27:59.458Z,2.03
2022-10-26T05:30:27.429Z,2.00
2022-10-26T05:32:56.070Z,2.30
2022-10-26T05:35:24.025Z,2.40
2022-10-26T05:37:52.006Z,1.90
2022-10-26T05:40:20.237Z,2.43
2022-10-26T05:42:48.070Z,2.33
2022-10-26T05:45:16.005Z,2.13
2022-10-26T05:47:44.466Z,2.20
2022-10-26T05:50:13.492Z,2.50
2022-10-26T05:52:45.038Z,2.57
2022-10-26T05:55:14.205Z,2.30
2022-10-26T05:57:42.553Z,2.20
2022-10-26T06:00:11.687Z,2.47
2022-10-26T06:03:02.562Z,2.70
2022-10-26T06:05:34.105Z,2.60
2022-10-26T06:08:02.044Z,2.87
2022-10-26T06:10:29.760Z,3.10
2022-10-26T06:12:57.840Z,3.03
2022-10-26T06:15:25.405Z,2.97
2022-10-26T06:18:01.473Z,3.50
2022-10-26T06:20:32.828Z,3.30
2022-10-26T06:23:15.881Z,3.13
2022-10-26T06:26:01.833Z,3.70
2022-10-26T06:28:38.922Z,3.40
2022-10-26T06:31:06.520Z,3.30
2022-10-26T06:33:34.001Z,3.87
2022-10-26T06:36:10.938Z,3.40
2022-10-26T06:38:39.234Z,3.87
2022-10-26T06:41:07.034Z,3.33
2022-10-26T06:43:36.093Z,3.53
2022-10-26T06:46:09.503Z,3.93
2022-10-26T06:48:46.339Z,3.63
2022-10-26T06:51:16.107Z,4.10
2022-10-26T06:53:47.373Z,3.77
2022-10-26T06:56:15.040Z,3.90
2022-10-26T06:58:43.000Z,3.60
2022-10-26T07:01:12.504Z,4.07
2022-10-26T07:03:40.380Z,3.40
2022-10-26T07:06:07.933Z,3.90
2022-10-26T07:08:35.408Z,3.70
2022-10-26T07:11:02.943Z,4.03
2022-10-26T07:13:30.290Z,4.47
2022-10-26T07:15:57.774Z,4.20
2022-10-26T07:18:25.261Z,4.20
2022-10-26T07:20:53.268Z,4.40
2022-10-26T07:23:23.431Z,4.07
2022-10-26T07:25:51.664Z,4.38
2022-10-26T07:28:19.874Z,3.90
2022-10-26T07:30:47.510Z,4.03
2022-10-26T07:33:15.724Z,4.50
2022-10-26T07:35:43.709Z,3.73
2022-10-26T07:38:12.335Z,3.30
2022-10-26T07:40:40.107Z,3.63
2022-10-26T07:43:07.701Z,3.58
2022-10-26T07:45:36.946Z,3.33
2022-10-26T07:48:04.747Z,3.25
2022-10-26T07:50:32.016Z,2.97
2022-10-26T07:53:00.170Z,3.50
2022-10-26T07:55:28.276Z,3.28
2022-10-26T07:57:56.324Z,3.35
2022-10-26T08:00:24.115Z,2.78
2022-10-26T08:02:51.683Z,3.20
2022-10-26T08:05:19.007Z,3.08
2022-10-26T08:07:46.482Z,3.15
2022-10-26T08:10:14.789Z,2.97
2022-10-26T08:12:43.087Z,3.10
2022-10-26T08:15:10.926Z,2.83
2022-10-26T08:17:38.187Z,2.72
2022-10-26T08:20:05.637Z,3.08
2022-10-26T08:22:32.981Z,2.85
2022-10-26T08:25:00.235Z,2.90
2022-10-26T08:27:27.694Z,2.78
2022-10-26T08:29:55.026Z,3.00
2022-10-26T08:32:22.287Z,2.92
2022-10-26T08:34:49.617Z,3.05
2022-10-26T08:37:16.952Z,3.42
2022-10-26T08:39:44.370Z,2.83
2022-10-26T08:42:14.998Z,2.75
2022-10-26T08:44:42.209Z,2.35
2022-10-26T08:49:52.178Z,2.45
2022-10-26T08:52:23.888Z,2.20
2022-10-26T08:54:56.490Z,2.13
2022-10-26T08:57:28.502Z,2.47
2022-10-26T09:00:01.117Z,2.28
2022-10-26T09:02:28.717Z,2.20
2022-10-26T09:04:59.345Z,2.38
2022-10-26T09:07:33.292Z,2.20
2022-10-26T09:10:09.105Z,2.47
2022-10-26T09:12:51.895Z,2.40
2022-10-26T09:15:31.625Z,1.80
2022-10-26T09:18:17.812Z,2.10
2022-10-26T09:21:03.774Z,2.40
2022-10-26T09:23:40.353Z,1.85
2022-10-26T09:26:13.577Z,2.17
2022-10-26T09:28:41.754Z,2.33
2022-10-26T09:31:14.286Z,2.28
2022-10-26T09:33:41.863Z,1.90
2022-10-26T09:36:19.962Z,2.17
2022-10-26T09:38:54.436Z,1.80
2022-10-26T09:41:28.339Z,2.08
2022-10-26T09:44:03.280Z,2.60
2022-10-26T09:46:50.455Z,1.80
2022-10-26T09:49:19.122Z,1.70
2022-10-26T09:51:46.536Z,2.00
2022-10-26T09:54:18.339Z,2.20
2022-10-26T09:56:47.850Z,1.50
2022-10-26T09:59:16.184Z,1.80
2022-10-26T10:01:43.767Z,1.85
2022-10-26T10:04:14.277Z,1.73
2022-10-26T10:06:42.024Z,2.10
2022-10-26T10:09:12.409Z,1.70
2022-10-26T10:11:55.213Z,1.75
2022-10-26T10:14:43.467Z,2.20
2022-10-26T10:17:20.708Z,1.65
2022-10-26T10:19:48.436Z,1.90
2022-10-26T10:22:15.698Z,2.08
2022-10-26T10:24:44.300Z,1.60
2022-10-26T10:27:15.876Z,1.35
2022-10-26T10:29:47.938Z,1.77
2022-10-26T10:32:16.252Z,1.73
2022-10-26T10:34:44.146Z,1.70
2022-10-26T10:37:27.026Z,2.25
2022-10-26T10:39:59.194Z,1.95
2022-10-26T10:42:47.616Z,1.55
2022-10-26T10:45:22.512Z,1.60
2022-10-26T10:48:03.344Z,1.42
2022-10-26T10:50:31.010Z,1.80
2022-10-26T10:53:14.956Z,1.73
2022-10-26T10:55:46.190Z,1.40
2022-10-26T10:58:42.498Z,1.55
2022-10-26T11:01:23.541Z,1.45
2022-10-26T11:04:12.427Z,1.42
2022-10-26T11:06:41.920Z,2.10
2022-10-26T11:09:12.559Z,1.92
2022-10-26T11:11:45.980Z,1.70
2022-10-26T11:14:13.602Z,1.70
2022-10-26T11:16:53.167Z,1.38
2022-10-26T11:19:26.780Z,1.95
2022-10-26T11:21:55.266Z,1.30
2022-10-26T11:24:32.484Z,2.13
2022-10-26T11:27:12.033Z,1.58
2022-10-26T11:29:40.306Z,1.40
2022-10-26T11:32:19.960Z,1.83
2022-10-26T11:34:53.776Z,1.60
2022-10-26T11:37:37.757Z,1.30
2022-10-26T11:40:23.913Z,1.60
2022-10-26T11:42:53.697Z,2.05
2022-10-26T11:45:26.591Z,1.98
2022-10-26T11:47:56.694Z,1.40
2022-10-26T11:50:27.023Z,1.90
2022-10-26T11:52:59.006Z,1.63
2022-10-26T11:55:26.273Z,1.88
2022-10-26T11:57:55.295Z,1.85
2022-10-26T12:00:23.499Z,1.60
2022-10-26T12:02:57.649Z,2.30
2022-10-26T12:05:27.879Z,1.63
2022-10-26T12:07:57.455Z,1.95
2022-10-26T12:10:27.972Z,1.92
2022-10-26T12:13:01.655Z,1.98
2022-10-26T12:18:54.590Z,2.20
2022-10-26T12:21:24.595Z,1.88
2022-10-26T12:23:58.007Z,2.20
2022-10-26T12:26:25.380Z,1.80
2022-10-26T12:29:05.133Z,1.88
2022-10-26T12:31:38.895Z,1.70
2022-10-26T12:34:26.753Z,1.48
2022-10-26T12:36:56.841Z,2.05
2022-10-26T12:39:40.769Z,2.05
2022-10-26T12:42:11.625Z,2.00
2022-10-26T12:44:48.359Z,2.10
2022-10-26T12:47:31.172Z,1.80
2022-10-26T12:50:02.101Z,2.20
2022-10-26T12:52:34.606Z,1.85
2022-10-26T12:55:25.524Z,1.80
2022-10-26T12:58:01.995Z,2.30
2022-10-26T13:00:30.846Z,1.98
2022-10-26T13:03:17.417Z,1.50
2022-10-26T13:05:44.721Z,2.08
2022-10-26T13:08:12.975Z,1.55
2022-10-26T13:10:43.853Z,1.90
2022-10-26T13:13:22.254Z,2.20
2022-10-26T13:15:56.861Z,2.00
2022-10-26T13:18:24.587Z,2.10
2022-10-26T13:20:54.861Z,1.60
2022-10-26T13:23:29.829Z,2.28
2022-10-26T13:26:14.944Z,1.98
2022-10-26T13:28:42.231Z,1.55
2022-10-26T13:31:18.522Z,1.80
2022-10-26T13:33:47.313Z,1.80
2022-10-26T13:36:34.889Z,1.80
2022-10-26T13:39:03.993Z,1.98
2022-10-26T13:41:35.597Z,1.85
2022-10-26T13:44:15.356Z,1.90
2022-10-26T13:46:46.824Z,1.90
2022-10-26T13:49:22.987Z,1.67
2022-10-26T13:51:51.311Z,1.80
2022-10-26T13:54:27.907Z,1.77
2022-10-26T13:57:03.074Z,2.03
2022-10-26T13:59:31.583Z,1.63
2022-10-26T14:02:09.510Z,1.85
2022-10-26T14:04:36.908Z,1.63
2022-10-26T14:07:04.158Z,1.58
2022-10-26T14:09:31.419Z,1.92
2022-10-26T14:11:59.758Z,9.63
2022-10-26T14:14:28.767Z,6.97
2022-10-26T14:16:56.574Z,2.78
2022-10-26T14:19:29.113Z,1.92
2022-10-26T14:21:56.921Z,2.13
2022-10-26T14:24:47.182Z,2.20
2022-10-26T14:27:18.854Z,2.40
2022-10-26T14:30:03.603Z,2.20
2022-10-26T14:32:34.057Z,9.65
2022-10-26T14:35:01.393Z,3.05
2022-10-26T14:37:28.609Z,2.60
2022-10-26T14:39:55.924Z,2.20
2022-10-26T14:42:29.312Z,1.80
2022-10-26T14:44:57.461Z,2.08
2022-10-26T14:47:26.051Z,2.22
2022-10-26T14:49:53.952Z,2.42
2022-10-26T14:52:25.594Z,1.80
2022-10-26T14:54:59.724Z,1.80
2022-10-26T14:57:31.764Z,1.92
2022-10-26T15:00:03.131Z,2.35
2022-10-26T15:02:33.575Z,2.10
2022-10-26T15:05:02.555Z,1.65
2022-10-26T15:07:41.052Z,2.17
2022-10-26T15:10:28.331Z,2.17
2022-10-26T15:12:55.570Z,1.83
2022-10-26T15:15:24.073Z,2.00
2022-10-26T15:17:56.295Z,1.77
2022-10-26T15:20:24.685Z,2.00
2022-10-26T15:22:53.742Z,2.08
2022-10-26T15:25:23.171Z,1.73
2022-10-26T15:27:51.890Z,2.10
2022-10-26T15:30:26.840Z,1.88
2022-10-26T15:32:57.207Z,2.30
2022-10-26T15:35:24.620Z,2.20
2022-10-26T15:37:53.006Z,2.30
2022-10-26T15:40:20.535Z,2.50
2022-10-26T15:42:53.025Z,1.85
2022-10-26T15:45:25.616Z,2.42
2022-10-26T15:47:53.450Z,2.38
2022-10-26T15:50:25.485Z,2.80
2022-10-26T15:52:57.251Z,2.38
2022-10-26T15:55:24.595Z,2.85
2022-10-26T15:57:53.153Z,2.72
2022-10-26T16:00:20.681Z,3.67
2022-10-26T16:02:47.980Z,4.22
2022-10-26T16:05:16.330Z,6.80
2022-10-26T16:07:44.793Z,11.70
2022-10-26T16:10:17.980Z,11.68
2022-10-26T16:12:45.303Z,10.50
2022-10-26T16:15:16.979Z,10.15
2022-10-26T16:17:44.314Z,8.55
2022-10-26T16:20:14.352Z,9.05
2022-10-26T16:22:46.910Z,9.18
2022-10-26T16:25:14.159Z,7.35
2022-10-26T16:27:44.686Z,6.47
2022-10-26T16:30:13.107Z,7.38
2022-10-26T16:32:41.046Z,10.50
2022-10-26T16:35:08.847Z,14.55
2022-10-26T16:37:36.195Z,18.73
2022-10-26T16:40:04.060Z,18.00
2022-10-26T16:42:32.843Z,16.63
2022-10-26T16:45:02.764Z,15.90
2022-10-26T16:47:35.635Z,13.52
2022-10-26T16:50:03.465Z,5.72
2022-10-26T16:52:30.910Z,6.60
2022-10-26T16:54:58.170Z,8.50
2022-10-26T16:57:25.524Z,9.27
2022-10-26T16:59:56.139Z,6.07
2022-10-26T17:02:25.043Z,6.45
2022-10-26T17:04:52.572Z,5.13
2022-10-26T17:07:19.846Z,4.70
2022-10-26T17:09:47.191Z,4.68
2022-10-26T17:12:14.772Z,7.57
2022-10-26T17:14:42.207Z,7.38
2022-10-26T17:17:09.719Z,8.05
2022-10-26T17:19:37.831Z,18.55
2022-10-26T17:22:07.971Z,21.00
2022-10-26T17:24:37.179Z,17.17
2022-10-26T17:27:04.639Z,17.30
2022-10-26T17:29:31.903Z,16.25
2022-10-26T17:31:59.334Z,12.88
2022-10-26T17:34:27.123Z,11.05
2022-10-26T17:36:54.910Z,10.48
2022-10-26T17:39:22.146Z,14.68
2022-10-26T17:41:49.503Z,14.55
2022-10-26T17:44:16.884Z,17.55
2022-10-26T17:46:44.151Z,18.63
2022-10-26T17:49:11.404Z,34.42
2022-10-26T17:51:38.769Z,34.63
2022-10-26T17:54:06.111Z,22.35
2022-10-26T17:56:34.436Z,22.42
2022-10-26T17:59:02.661Z,17.10
2022-10-26T18:01:31.843Z,17.35
2022-10-26T18:03:59.768Z,14.18
2022-10-26T18:06:27.019Z,10.73
2022-10-26T18:08:54.286Z,9.50
2022-10-26T18:11:26.522Z,11.70
2022-10-26T18:13:55.807Z,16.30
2022-10-26T18:16:23.713Z,12.63
2022-10-26T18:19:00.710Z,13.75
2022-10-26T18:21:29.784Z,11.55
2022-10-26T18:23:57.231Z,13.20
2022-10-26T18:26:26.551Z,11.60
2022-10-26T18:28:54.003Z,12.23
2022-10-26T18:31:23.050Z,11.27
2022-10-26T18:33:56.404Z,8.20
2022-10-26T18:36:24.240Z,7.95
2022-10-26T18:38:51.690Z,9.25
2022-10-26T18:41:20.680Z,9.63
2022-10-26T18:43:52.456Z,10.90
2022-10-26T18:46:24.490Z,16.50
2022-10-26T18:48:52.330Z,16.88
2022-10-26T18:51:21.227Z,19.20
2022-10-26T18:53:48.937Z,11.10
2022-10-26T18:56:17.377Z,7.30
2022-10-26T18:58:46.137Z,10.43
2022-10-26T19:01:13.573Z,13.05
2022-10-26T19:03:41.467Z,11.13
2022-10-26T19:06:16.674Z,10.10
2022-10-26T19:08:46.243Z,11.65
2022-10-26T19:11:14.783Z,11.07
2022-10-26T19:13:42.269Z,13.52
2022-10-26T19:16:21.740Z,18.60
2022-10-26T19:18:58.750Z,8.00
2022-10-26T19:21:28.243Z,9.45
2022-10-26T19:23:57.089Z,8.30
2022-10-26T19:26:25.707Z,8.48
2022-10-26T19:28:57.575Z,9.05
2022-10-26T19:31:27.184Z,7.65
2022-10-26T19:33:58.188Z,8.20
2022-10-26T19:36:27.498Z,8.00
2022-10-26T19:38:55.466Z,7.28
2022-10-26T19:41:23.703Z,7.13
2022-10-26T19:43:51.204Z,7.68
2022-10-26T19:46:20.610Z,9.05
2022-10-26T19:48:52.528Z,8.45
2022-10-26T19:51:20.346Z,9.30
2022-10-26T19:53:47.725Z,11.98
2022-10-26T19:56:15.543Z,12.02
2022-10-26T19:58:43.798Z,11.63
2022-10-26T20:01:12.312Z,11.70
2022-10-26T20:03:39.870Z,11.77
2022-10-26T20:06:08.608Z,11.80
2022-10-26T20:08:36.227Z,11.52
2022-10-26T20:11:04.239Z,12.43
2022-10-26T20:13:31.763Z,12.18
2022-10-26T20:15:59.105Z,12.00
2022-10-26T20:18:26.961Z,11.52
2022-10-26T20:20:54.378Z,7.43
2022-10-26T20:23:21.876Z,11.63
2022-10-26T20:25:50.028Z,11.37
2022-10-26T20:28:18.549Z,8.57
2022-10-26T20:30:46.412Z,8.30
2022-10-26T20:33:13.956Z,9.97
2022-10-26T20:35:41.255Z,10.20
2022-10-26T20:38:14.868Z,9.53
2022-10-26T20:40:42.366Z,7.57
2022-10-26T20:43:18.443Z,9.80
2022-10-26T20:45:46.309Z,9.33
2022-10-26T20:48:13.714Z,10.33
2022-10-26T20:50:41.809Z,9.90
2022-10-26T20:53:18.929Z,11.23
2022-10-26T20:56:03.114Z,8.63
2022-10-26T20:58:41.660Z,8.87
2022-10-26T21:01:17.385Z,7.93
2022-10-26T21:03:44.793Z,9.77
2022-10-26T21:06:12.287Z,10.60
2022-10-26T21:08:39.825Z,15.10
2022-10-26T21:11:07.282Z,15.13
2022-10-26T21:13:34.539Z,13.33
2022-10-26T21:16:05.769Z,12.77
2022-10-26T21:18:33.668Z,11.63
2022-10-26T21:21:01.526Z,11.70
2022-10-26T21:23:35.292Z,11.05
2022-10-26T21:26:02.882Z,10.23
2022-10-26T21:28:34.779Z,9.60
2022-10-26T21:31:03.004Z,5.10
2022-10-26T21:33:34.178Z,4.97
2022-10-26T21:36:01.987Z,5.20
2022-10-26T21:38:29.640Z,4.67
2022-10-26T21:41:04.670Z,4.23
2022-10-26T21:43:32.503Z,4.40
2022-10-26T21:46:03.389Z,4.30
2022-10-26T21:48:31.773Z,4.10
2022-10-26T21:50:59.103Z,4.40
2022-10-26T21:53:27.619Z,4.57
2022-10-26T21:56:02.148Z,4.40
2022-10-26T21:58:29.953Z,3.80
2022-10-26T22:01:07.413Z,4.10
2022-10-26T22:03:35.018Z,4.10
2022-10-26T22:06:02.750Z,6.10
2022-10-26T22:08:30.226Z,5.07
2022-10-26T22:10:57.841Z,5.37
2022-10-26T22:13:25.422Z,6.10
2022-10-26T22:16:06.601Z,8.00
2022-10-26T22:18:37.773Z,8.90
2022-10-26T22:21:06.999Z,9.10
2022-10-26T22:23:38.650Z,10.03
2022-10-26T22:26:07.703Z,9.10
2022-10-26T22:28:39.958Z,8.97
2022-10-26T22:31:14.732Z,7.73
2022-10-26T22:33:42.497Z,7.27
2022-10-26T22:36:11.534Z,7.63
2022-10-26T22:38:38.895Z,6.47
2022-10-26T22:41:06.565Z,6.53
2022-10-26T22:43:33.974Z,6.90
2022-10-26T22:46:02.361Z,7.83
2022-10-26T22:48:29.653Z,7.03
2022-10-26T22:50:58.396Z,6.40
2022-10-26T22:53:26.069Z,6.27
2022-10-26T22:55:53.314Z,7.00
2022-10-26T22:58:20.603Z,6.47
2022-10-26T23:00:48.204Z,6.40
2022-10-26T23:03:18.002Z,6.27
2022-10-26T23:05:49.012Z,6.57
2022-10-26T23:08:16.418Z,6.23
2022-10-26T23:10:43.725Z,4.50
2022-10-26T23:13:10.985Z,4.43
2022-10-26T23:15:38.221Z,5.10
2022-10-26T23:18:05.942Z,5.67
2022-10-26T23:20:33.736Z,5.17
2022-10-26T23:23:01.519Z,5.40
2022-10-26T23:25:29.617Z,4.83
2022-10-26T23:27:56.820Z,6.20
2022-10-26T23:30:24.102Z,5.53
2022-10-26T23:32:51.699Z,5.13
2022-10-26T23:35:19.274Z,4.80
2022-10-26T23:37:46.485Z,5.40
2022-10-26T23:40:13.769Z,5.53
2022-10-26T23:42:41.087Z,5.73
2022-10-26T23:45:08.895Z,5.67
2022-10-26T23:47:36.203Z,5.77
2022-10-26T23:50:03.658Z,5.70
2022-10-26T23:52:31.155Z,5.53
2022-10-26T23:54:58.648Z,5.27
2022-10-26T23:57:25.893Z,5.43
2022-10-26T23:59:53.415Z,6.77
